Time;durP1;ratioP1;P1;durP2;ratioP2;P2;SDS_P1;SDS_P2;PMS_P1;PMS_P2;Temp;Humidity;BMP_temperature;BMP_pressure;BME280_temperature;BME280_humidity;BME280_pressure;Samples;Min_cycle;Max_cycle;Signal;HPM_P1;HPM_P2
2021/01/09 00:00:05;;;;;;;1.42;0.80;;;20.70;39.20;;;;;;5062195;28;20552;-46
2021/01/09 00:02:30;;;;;;;1.17;0.80;;;20.70;39.30;;;;;;5071704;22;20049;-45
2021/01/09 00:04:56;;;;;;;1.50;0.68;;;20.70;39.20;;;;;;5070841;28;20097;-43
2021/01/09 00:07:22;;;;;;;0.80;0.55;;;20.70;39.20;;;;;;5073100;28;20244;-44
2021/01/09 00:09:47;;;;;;;1.63;0.80;;;20.60;39.10;;;;;;5076279;28;20482;-43
2021/01/09 00:12:14;;;;;;;1.70;0.70;;;20.70;39.10;;;;;;5047424;28;20683;-45
2021/01/09 00:14:40;;;;;;;1.00;0.60;;;20.60;39.20;;;;;;5050851;28;20037;-44
2021/01/09 00:17:06;;;;;;;1.38;0.70;;;20.60;39.20;;;;;;5065277;28;20036;-45
2021/01/09 00:19:33;;;;;;;0.90;0.50;;;20.60;39.20;;;;;;5052031;28;20107;-44
2021/01/09 00:21:58;;;;;;;1.35;0.80;;;20.60;39.10;;;;;;5056779;28;20052;-46
2021/01/09 00:24:24;;;;;;;1.48;0.52;;;20.60;39.20;;;;;;5035849;28;20056;-44
2021/01/09 00:26:50;;;;;;;1.15;0.77;;;20.60;39.10;;;;;;5056912;28;20032;-44
2021/01/09 00:29:15;;;;;;;3.55;0.60;;;20.50;39.00;;;;;;5052610;28;20029;-44
2021/01/09 00:31:41;;;;;;;1.35;0.50;;;20.50;39.00;;;;;;5056313;28;20024;-43
2021/01/09 00:34:07;;;;;;;1.30;0.65;;;20.50;39.10;;;;;;5052724;28;20461;-45
2021/01/09 00:36:32;;;;;;;0.88;0.45;;;20.50;39.20;;;;;;5051923;28;20033;-44
2021/01/09 00:38:58;;;;;;;1.42;0.77;;;20.50;39.10;;;;;;5054302;28;20382;-45
2021/01/09 00:41:28;;;;;;;1.23;0.32;;;20.50;39.20;;;;;;5057054;28;20041;-44
2021/01/09 00:43:54;;;;;;;0.98;0.57;;;20.40;39.20;;;;;;5051327;28;20064;-46
2021/01/09 00:46:20;;;;;;;1.80;0.70;;;20.40;39.10;;;;;;5048173;28;20064;-45
2021/01/09 00:48:45;;;;;;;1.00;0.70;;;20.40;38.90;;;;;;5047791;28;20017;-45
2021/01/09 00:51:12;;;;;;;1.55;0.70;;;20.40;39.10;;;;;;5052617;28;20067;-43
2021/01/09 00:53:38;;;;;;;1.63;0.80;;;20.40;39.30;;;;;;5061266;28;20028;-43
2021/01/09 00:56:05;;;;;;;0.95;0.52;;;20.40;39.20;;;;;;5063902;28;20048;-42
2021/01/09 00:58:30;;;;;;;0.95;0.63;;;20.40;39.30;;;;;;5064045;28;20481;-43
2021/01/09 01:00:56;;;;;;;1.10;0.63;;;20.40;39.00;;;;;;5060802;28;20035;-43
2021/01/09 01:03:21;;;;;;;1.10;0.55;;;20.30;39.00;;;;;;5068393;28;20039;-42
2021/01/09 01:05:47;;;;;;;0.82;0.40;;;20.30;39.00;;;;;;5053577;28;20028;-43
2021/01/09 01:08:12;;;;;;;1.10;0.40;;;20.30;39.30;;;;;;5043108;28;20112;-39
2021/01/09 01:10:38;;;;;;;0.73;0.40;;;20.30;39.20;;;;;;5061012;28;20052;-40
2021/01/09 01:13:03;;;;;;;0.82;0.30;;;20.20;39.00;;;;;;5062542;28;20045;-41
2021/01/09 01:15:29;;;;;;;0.73;0.40;;;20.30;39.30;;;;;;5058207;28;20044;-42
2021/01/09 01:17:55;;;;;;;0.93;0.55;;;20.20;39.20;;;;;;5060959;28;20055;-42
2021/01/09 01:20:20;;;;;;;0.80;0.40;;;20.30;39.10;;;;;;5051420;28;20035;-40
2021/01/09 01:22:46;;;;;;;1.10;0.47;;;20.20;39.10;;;;;;5051706;28;20529;-43
2021/01/09 01:25:12;;;;;;;1.98;0.50;;;20.20;39.20;;;;;;5050559;28;20546;-41
2021/01/09 01:27:38;;;;;;;1.23;0.73;;;20.20;39.10;;;;;;5051524;28;20585;-42
2021/01/09 01:30:04;;;;;;;1.33;0.47;;;20.20;39.10;;;;;;5051329;28;20096;-41
2021/01/09 01:32:33;;;;;;;1.92;0.50;;;20.20;39.20;;;;;;5063175;28;20133;-41
2021/01/09 01:34:59;;;;;;;1.60;0.50;;;20.20;39.20;;;;;;5050944;28;20409;-44
2021/01/09 01:37:24;;;;;;;0.70;0.32;;;20.20;39.30;;;;;;5050909;28;20044;-39
2021/01/09 01:39:50;;;;;;;0.50;0.30;;;20.10;39.20;;;;;;5059973;28;20044;-43
2021/01/09 01:42:15;;;;;;;1.08;0.38;;;20.10;39.10;;;;;;5050248;28;20033;-41
2021/01/09 01:44:41;;;;;;;1.17;0.55;;;20.10;38.80;;;;;;5057519;28;20032;-44
2021/01/09 01:47:14;;;;;;;0.60;0.30;;;20.10;39.20;;;;;;5070491;28;20036;-44
2021/01/09 01:49:40;;;;;;;1.17;0.57;;;20.10;39.30;;;;;;5051663;28;20029;-44
2021/01/09 01:52:06;;;;;;;1.13;0.63;;;20.10;39.00;;;;;;5050296;28;20041;-43
2021/01/09 01:54:32;;;;;;;0.90;0.52;;;20.10;39.00;;;;;;5057954;28;20039;-44
2021/01/09 01:56:59;;;;;;;1.25;0.50;;;20.10;39.00;;;;;;5050959;28;20033;-40
2021/01/09 01:59:24;;;;;;;0.98;0.45;;;20.10;39.10;;;;;;5051300;28;20059;-45
2021/01/09 02:01:50;;;;;;;1.67;0.45;;;20.10;39.20;;;;;;5051443;28;20490;-42
2021/01/09 02:04:16;;;;;;;0.70;0.40;;;20.00;38.90;;;;;;5049859;28;20041;-43
2021/01/09 02:06:42;;;;;;;1.30;0.65;;;20.00;39.10;;;;;;5050697;28;20025;-44
2021/01/09 02:09:16;;;;;;;1.00;0.50;;;20.00;39.20;;;;;;5054225;28;20035;-44
2021/01/09 02:11:42;;;;;;;1.45;0.45;;;20.00;38.90;;;;;;5039842;28;20029;-43
2021/01/09 02:14:22;;;;;;;1.48;0.60;;;20.00;39.20;;;;;;5055322;28;20059;-42
2021/01/09 02:16:48;;;;;;;1.48;0.60;;;20.00;39.10;;;;;;5057581;28;20036;-45
2021/01/09 02:19:16;;;;;;;0.88;0.60;;;20.00;39.10;;;;;;5057667;28;20041;-41
2021/01/09 02:21:42;;;;;;;0.90;0.40;;;20.00;39.20;;;;;;5047198;28;20090;-46
2021/01/09 02:24:12;;;;;;;1.10;0.52;;;20.00;39.20;;;;;;5056945;28;20037;-43
2021/01/09 02:26:38;;;;;;;1.33;0.52;;;20.00;39.10;;;;;;5054174;28;20093;-44
2021/01/09 02:29:03;;;;;;;1.25;0.60;;;20.00;39.10;;;;;;5061248;28;20063;-43
2021/01/09 02:31:39;;;;;;;0.60;0.40;;;20.00;39.10;;;;;;5061122;28;20041;-43
2021/01/09 02:34:08;;;;;;;0.82;0.50;;;19.90;39.10;;;;;;5057264;28;20438;-44
2021/01/09 02:36:36;;;;;;;1.08;0.60;;;19.90;39.20;;;;;;5054993;28;20099;-42
2021/01/09 02:39:02;;;;;;;1.20;0.50;;;19.90;39.10;;;;;;5054065;28;20036;-41
2021/01/09 02:41:30;;;;;;;1.38;0.55;;;19.90;38.90;;;;;;5058509;28;20044;-42
2021/01/09 02:44:08;;;;;;;1.17;0.52;;;19.90;39.10;;;;;;5070164;28;20029;-40
2021/01/09 02:46:34;;;;;;;1.20;0.90;;;19.90;38.70;;;;;;5054574;28;20029;-43
2021/01/09 02:49:00;;;;;;;1.55;0.70;;;19.80;39.00;;;;;;5053605;28;20043;-42
2021/01/09 02:51:25;;;;;;;2.22;0.60;;;19.80;39.10;;;;;;5059457;28;20410;-40
2021/01/09 02:53:51;;;;;;;0.90;0.43;;;19.80;38.90;;;;;;5068010;28;20392;-42
2021/01/09 02:56:16;;;;;;;1.38;0.40;;;19.90;39.00;;;;;;5054164;28;20029;-43
2021/01/09 02:58:42;;;;;;;1.45;0.70;;;19.80;39.10;;;;;;5053888;28;20059;-40
2021/01/09 03:01:07;;;;;;;1.20;0.52;;;19.80;39.00;;;;;;5065250;28;20048;-40
2021/01/09 03:03:33;;;;;;;1.50;0.82;;;19.80;39.10;;;;;;5072707;28;20036;-45
2021/01/09 03:05:58;;;;;;;1.15;0.65;;;19.80;39.10;;;;;;5065255;28;20504;-43
2021/01/09 03:08:24;;;;;;;1.65;0.60;;;19.80;39.10;;;;;;5040800;28;20021;-44
2021/01/09 03:10:50;;;;;;;1.10;0.93;;;19.80;39.00;;;;;;5052945;28;20040;-44
2021/01/09 03:13:15;;;;;;;1.20;0.50;;;19.80;39.10;;;;;;5053073;28;20036;-45
2021/01/09 03:15:41;;;;;;;1.20;0.70;;;19.80;39.00;;;;;;5054623;28;20044;-44
2021/01/09 03:18:06;;;;;;;1.05;0.60;;;19.70;39.00;;;;;;5051883;28;20118;-42
2021/01/09 03:20:32;;;;;;;0.70;0.47;;;19.70;39.10;;;;;;5051821;28;20043;-43
2021/01/09 03:22:57;;;;;;;0.80;0.50;;;19.80;39.20;;;;;;5052252;28;20060;-41
2021/01/09 03:25:23;;;;;;;1.38;0.63;;;19.70;39.00;;;;;;5054465;28;20036;-45
2021/01/09 03:27:48;;;;;;;1.60;0.55;;;19.70;39.20;;;;;;5064711;28;20101;-43
2021/01/09 03:30:14;;;;;;;0.90;0.55;;;19.70;39.00;;;;;;5055826;28;20105;-38
2021/01/09 03:32:40;;;;;;;0.90;0.50;;;19.70;39.10;;;;;;5066015;28;20421;-41
2021/01/09 03:35:06;;;;;;;1.10;0.55;;;19.70;39.20;;;;;;5065704;28;20119;-42
2021/01/09 03:37:31;;;;;;;1.17;0.73;;;19.70;38.90;;;;;;5055546;28;20116;-41
2021/01/09 03:39:57;;;;;;;0.73;0.40;;;19.70;39.40;;;;;;5053544;28;20033;-41
2021/01/09 03:42:23;;;;;;;0.90;0.60;;;19.70;39.00;;;;;;5052761;28;20705;-41
2021/01/09 03:44:48;;;;;;;0.88;0.63;;;19.70;38.90;;;;;;5056440;28;20040;-41
2021/01/09 03:47:14;;;;;;;1.23;0.82;;;19.70;38.90;;;;;;5055275;28;20541;-42
2021/01/09 03:49:39;;;;;;;1.30;0.60;;;19.70;39.00;;;;;;5053852;28;20112;-43
2021/01/09 03:52:05;;;;;;;1.10;0.80;;;19.70;39.00;;;;;;5053520;28;20032;-43
2021/01/09 03:54:30;;;;;;;1.25;0.65;;;19.70;39.10;;;;;;5052178;28;20039;-43
2021/01/09 03:56:56;;;;;;;1.10;0.57;;;19.60;38.90;;;;;;5052712;28;20040;-43
2021/01/09 03:59:21;;;;;;;1.27;0.55;;;19.70;39.00;;;;;;5072660;28;20025;-43
2021/01/09 04:01:47;;;;;;;1.15;0.70;;;19.60;39.10;;;;;;5052988;28;20083;-44
2021/01/09 04:04:13;;;;;;;0.85;0.63;;;19.60;38.90;;;;;;5054385;28;20065;-42
2021/01/09 04:06:39;;;;;;;1.00;0.63;;;19.60;39.00;;;;;;5063243;28;20028;-44
2021/01/09 04:09:04;;;;;;;0.77;0.40;;;19.60;39.00;;;;;;5052154;28;20033;-40
2021/01/09 04:11:30;;;;;;;1.88;0.88;;;19.60;39.00;;;;;;5052396;28;20032;-43
2021/01/09 04:13:56;;;;;;;1.08;0.77;;;19.60;38.90;;;;;;5051093;28;20419;-43
2021/01/09 04:16:22;;;;;;;1.40;0.80;;;19.60;38.90;;;;;;5053347;28;20033;-41
2021/01/09 04:18:47;;;;;;;1.13;0.55;;;19.60;39.00;;;;;;5051901;28;20032;-42
2021/01/09 04:21:13;;;;;;;1.27;0.70;;;19.60;39.10;;;;;;5052765;28;20039;-41
2021/01/09 04:23:38;;;;;;;0.80;0.50;;;19.60;39.00;;;;;;5051194;28;20036;-43
2021/01/09 04:26:04;;;;;;;1.30;0.60;;;19.60;39.00;;;;;;5059324;28;20037;-44
2021/01/09 04:28:29;;;;;;;1.63;0.90;;;19.60;39.00;;;;;;5051768;28;20025;-42
2021/01/09 04:30:55;;;;;;;1.00;0.77;;;19.60;39.20;;;;;;5052059;28;20028;-42
2021/01/09 04:33:20;;;;;;;1.25;0.70;;;19.60;38.90;;;;;;5038472;28;20017;-43
2021/01/09 04:35:46;;;;;;;1.02;0.68;;;19.60;38.90;;;;;;5031932;28;20141;-44
2021/01/09 04:38:11;;;;;;;1.02;0.90;;;19.50;38.80;;;;;;5051762;28;20102;-42
2021/01/09 04:40:37;;;;;;;1.15;0.40;;;19.50;38.90;;;;;;5051268;28;20047;-43
2021/01/09 04:43:03;;;;;;;0.88;0.57;;;19.50;39.10;;;;;;5053185;28;20068;-44
2021/01/09 04:45:29;;;;;;;0.88;0.50;;;19.50;39.50;;;;;;5033237;28;20477;-43
2021/01/09 04:47:56;;;;;;;1.08;0.80;;;19.50;39.00;;;;;;5051469;28;20025;-40
2021/01/09 04:50:22;;;;;;;1.85;0.82;;;19.50;38.90;;;;;;5052494;28;20047;-43
2021/01/09 04:52:49;;;;;;;2.65;0.65;;;19.50;38.90;;;;;;5065675;28;20032;-43
2021/01/09 04:55:15;;;;;;;1.13;0.60;;;19.50;39.00;;;;;;5060755;28;20033;-42
2021/01/09 04:57:41;;;;;;;2.25;1.20;;;19.40;39.40;;;;;;5065537;28;20044;-45
2021/01/09 05:00:08;;;;;;;1.02;0.47;;;19.50;39.60;;;;;;5056972;28;20370;-43
2021/01/09 05:02:37;;;;;;;1.52;0.80;;;19.50;39.00;;;;;;5070437;28;20113;-43
2021/01/09 05:05:04;;;;;;;1.63;1.00;;;19.50;39.10;;;;;;5055450;28;20258;-45
2021/01/09 05:07:30;;;;;;;1.00;0.70;;;19.50;39.10;;;;;;5051676;28;20048;-44
2021/01/09 05:10:03;;;;;;;1.10;0.80;;;19.40;39.00;;;;;;5059192;28;20035;-43
2021/01/09 05:12:34;;;;;;;2.47;0.85;;;19.40;39.10;;;;;;5051122;28;20468;-44
2021/01/09 05:15:01;;;;;;;1.23;0.80;;;19.40;39.00;;;;;;5050480;28;20063;-44
2021/01/09 05:17:26;;;;;;;0.98;0.65;;;19.40;39.00;;;;;;5051850;28;20041;-41
2021/01/09 05:19:52;;;;;;;1.50;1.00;;;19.40;39.10;;;;;;5050786;28;20041;-45
2021/01/09 05:22:19;;;;;;;1.67;1.10;;;19.40;38.80;;;;;;5052020;28;20083;-42
2021/01/09 05:24:49;;;;;;;1.33;0.90;;;19.40;38.80;;;;;;5056318;28;20032;-45
2021/01/09 05:27:18;;;;;;;1.80;1.10;;;19.40;38.90;;;;;;5052290;28;20064;-43
2021/01/09 05:29:52;;;;;;;1.20;0.60;;;19.40;38.90;;;;;;5050947;28;20043;-43
2021/01/09 05:32:18;;;;;;;1.42;0.90;;;19.40;38.90;;;;;;5061318;28;20060;-44
2021/01/09 05:34:46;;;;;;;5.65;1.20;;;19.40;39.10;;;;;;5051093;28;20028;-44
2021/01/09 05:37:20;;;;;;;1.63;1.05;;;19.40;39.10;;;;;;5054205;28;20101;-43
2021/01/09 05:39:56;;;;;;;1.67;1.08;;;19.40;39.10;;;;;;5071174;28;20532;-44
2021/01/09 05:42:27;;;;;;;1.95;1.20;;;19.30;39.00;;;;;;5053548;28;20093;-45
2021/01/09 05:44:54;;;;;;;1.77;1.20;;;19.40;39.10;;;;;;5065498;28;20037;-41
2021/01/09 05:47:25;;;;;;;1.38;1.25;;;19.30;39.00;;;;;;5063823;28;20044;-42
2021/01/09 05:49:53;;;;;;;1.30;0.80;;;19.30;38.90;;;;;;5052167;28;20032;-43
2021/01/09 05:52:22;;;;;;;2.05;1.00;;;19.30;39.00;;;;;;5054637;28;20029;-43
2021/01/09 05:54:47;;;;;;;1.75;1.30;;;19.30;38.90;;;;;;5068203;28;20025;-43
2021/01/09 05:57:17;;;;;;;2.30;1.35;;;19.30;38.70;;;;;;5055626;28;20418;-44
2021/01/09 05:59:43;;;;;;;1.60;1.10;;;19.30;38.80;;;;;;5054644;28;20037;-46
2021/01/09 06:02:10;;;;;;;2.03;1.52;;;19.30;39.00;;;;;;5082706;22;20055;-48
2021/01/09 06:04:41;;;;;;;2.28;1.42;;;19.30;38.90;;;;;;5089465;28;20047;-47
2021/01/09 06:07:21;;;;;;;1.70;1.30;;;19.30;39.00;;;;;;5081704;28;20035;-44
2021/01/09 06:10:05;;;;;;;2.08;1.20;;;19.30;39.00;;;;;;5074163;28;20299;-50
2021/01/09 06:12:36;;;;;;;2.25;1.33;;;19.30;39.00;;;;;;5075333;28;20150;-47
2021/01/09 06:15:05;;;;;;;1.63;1.38;;;19.30;38.90;;;;;;5084243;28;20028;-45
2021/01/09 06:17:34;;;;;;;1.55;0.90;;;19.30;39.40;;;;;;5087392;28;20020;-48
2021/01/09 06:19:59;;;;;;;2.10;1.50;;;19.30;38.80;;;;;;5089303;28;20089;-48
2021/01/09 06:22:26;;;;;;;1.88;1.30;;;19.30;39.10;;;;;;5069552;28;20100;-46
2021/01/09 06:24:52;;;;;;;2.60;1.42;;;19.20;39.10;;;;;;5080824;28;20028;-48
2021/01/09 06:27:24;;;;;;;1.98;1.23;;;19.20;38.90;;;;;;5091042;28;20024;-50
2021/01/09 06:29:52;;;;;;;2.78;1.60;;;19.20;38.90;;;;;;5090537;28;20103;-46
2021/01/09 06:32:26;;;;;;;1.27;1.17;;;19.20;38.90;;;;;;5090364;28;20089;-49
2021/01/09 06:34:53;;;;;;;2.35;1.48;;;19.20;38.90;;;;;;5085862;28;20020;-49
2021/01/09 06:37:22;;;;;;;2.33;1.67;;;19.20;39.10;;;;;;5068551;28;20043;-47
2021/01/09 06:39:48;;;;;;;2.20;1.70;;;19.20;39.00;;;;;;5088363;28;20028;-50
2021/01/09 06:42:17;;;;;;;2.90;1.45;;;19.20;38.70;;;;;;5079538;28;20058;-49
2021/01/09 06:44:49;;;;;;;2.67;1.75;;;19.20;39.00;;;;;;5086699;28;20024;-48
2021/01/09 06:47:29;;;;;;;1.95;1.15;;;19.20;39.00;;;;;;5083288;28;20142;-48
2021/01/09 06:49:55;;;;;;;3.22;1.52;;;19.20;39.00;;;;;;5088452;28;20088;-49
2021/01/09 06:52:23;;;;;;;1.33;1.13;;;19.20;38.90;;;;;;5089475;28;20035;-46
2021/01/09 06:54:48;;;;;;;2.75;1.70;;;19.20;39.00;;;;;;5104873;28;20035;-49
2021/01/09 06:57:19;;;;;;;2.00;1.40;;;19.20;39.00;;;;;;5074351;28;20547;-51
2021/01/09 06:59:49;;;;;;;2.38;1.75;;;19.20;38.90;;;;;;5089364;28;20052;-47
2021/01/09 07:02:24;;;;;;;1.83;1.15;;;19.10;38.80;;;;;;5080198;28;20725;-49
2021/01/09 07:05:08;;;;;;;1.55;1.27;;;19.10;39.00;;;;;;5073332;28;20028;-47
2021/01/09 07:07:56;;;;;;;1.67;1.17;;;19.20;39.00;;;;;;5054436;28;20122;-48
2021/01/09 07:10:26;;;;;;;2.45;1.52;;;19.10;39.00;;;;;;5083283;28;20062;-48
2021/01/09 07:12:57;;;;;;;1.88;1.38;;;19.10;39.00;;;;;;5080462;28;20039;-50
2021/01/09 07:15:24;;;;;;;1.75;1.30;;;19.10;39.10;;;;;;5085752;28;20033;-48
2021/01/09 07:17:59;;;;;;;2.17;1.20;;;19.10;39.00;;;;;;5084070;28;20169;-49
2021/01/09 07:20:29;;;;;;;2.17;1.40;;;19.10;39.00;;;;;;5089197;28;20036;-50
2021/01/09 07:23:00;;;;;;;2.03;1.70;;;19.10;39.00;;;;;;5092288;28;20724;-48
2021/01/09 07:25:46;;;;;;;1.70;1.27;;;19.10;39.00;;;;;;5088413;28;20035;-48
2021/01/09 07:28:22;;;;;;;2.03;1.33;;;19.10;38.90;;;;;;5071270;28;20024;-45
2021/01/09 07:31:03;;;;;;;2.60;1.58;;;19.10;38.90;;;;;;5087004;28;20017;-47
2021/01/09 07:33:31;;;;;;;2.17;1.53;;;19.10;39.10;;;;;;5090091;28;20548;-45
2021/01/09 07:35:57;;;;;;;2.10;1.80;;;19.10;38.90;;;;;;5075658;28;20290;-43
2021/01/09 07:38:23;;;;;;;1.75;1.30;;;19.10;39.00;;;;;;5089522;28;20089;-48
2021/01/09 07:40:57;;;;;;;2.50;1.05;;;19.10;39.00;;;;;;5067332;28;20040;-47
2021/01/09 07:43:39;;;;;;;2.03;1.80;;;19.10;39.00;;;;;;5090025;28;20473;-51
2021/01/09 07:46:25;;;;;;;2.38;1.65;;;19.10;39.00;;;;;;5074608;28;20117;-47
2021/01/09 07:48:52;;;;;;;1.50;1.27;;;19.10;38.90;;;;;;5083941;28;20032;-50
2021/01/09 07:51:19;;;;;;;3.22;2.00;;;19.00;38.90;;;;;;5088748;28;20055;-46
2021/01/09 07:53:46;;;;;;;2.33;1.77;;;19.10;39.00;;;;;;5094807;28;20687;-49
2021/01/09 07:56:32;;;;;;;1.83;1.45;;;19.00;38.90;;;;;;5088194;28;20077;-47
2021/01/09 07:58:57;;;;;;;1.40;1.30;;;19.00;39.00;;;;;;5085054;28;20389;-47
2021/01/09 08:01:23;;;;;;;3.40;1.73;;;19.00;39.00;;;;;;5083466;28;20077;-49
2021/01/09 08:03:48;;;;;;;1.98;1.40;;;19.00;39.00;;;;;;5078645;28;20165;-48
2021/01/09 08:06:14;;;;;;;2.92;1.65;;;19.00;39.00;;;;;;5070806;28;20273;-50
2021/01/09 08:08:39;;;;;;;2.20;1.60;;;19.00;39.00;;;;;;5087791;28;20032;-44
2021/01/09 08:11:05;;;;;;;2.42;1.80;;;19.00;39.00;;;;;;5082003;28;20036;-46
2021/01/09 08:13:30;;;;;;;1.35;1.15;;;19.00;39.00;;;;;;5087911;28;20095;-48
2021/01/09 08:15:57;;;;;;;2.25;1.50;;;19.00;39.10;;;;;;5087894;28;20048;-51
2021/01/09 08:18:23;;;;;;;2.95;1.58;;;19.00;39.10;;;;;;5089093;28;20055;-47
2021/01/09 08:20:49;;;;;;;2.65;1.55;;;19.00;39.10;;;;;;5088497;28;20441;-47
2021/01/09 08:23:15;;;;;;;3.47;1.73;;;19.00;39.10;;;;;;5089216;28;20127;-46
2021/01/09 08:25:43;;;;;;;2.30;1.50;;;18.90;39.30;;;;;;5076636;28;20111;-50
2021/01/09 08:28:09;;;;;;;2.10;1.50;;;18.90;39.30;;;;;;5085295;28;20024;-45
2021/01/09 08:30:38;;;;;;;2.97;2.03;;;19.00;39.40;;;;;;5058414;28;20669;-50
2021/01/09 08:33:13;;;;;;;3.42;1.60;;;19.00;39.40;;;;;;5086990;28;20028;-50
2021/01/09 08:35:48;;;;;;;1.88;1.60;;;19.00;39.60;;;;;;5073995;28;20036;-48
2021/01/09 08:38:14;;;;;;;2.55;1.65;;;18.90;39.60;;;;;;5071102;28;20601;-50
2021/01/09 08:40:42;;;;;;;1.58;1.25;;;18.90;39.80;;;;;;5075547;28;20038;-46
2021/01/09 08:43:10;;;;;;;2.55;1.90;;;18.90;39.70;;;;;;5086888;28;20030;-50
2021/01/09 08:45:55;;;;;;;2.97;1.80;;;18.90;39.70;;;;;;5082402;28;20160;-48
2021/01/09 08:48:29;;;;;;;2.60;1.70;;;18.90;39.60;;;;;;5082316;28;20035;-49
2021/01/09 08:51:15;;;;;;;2.60;1.73;;;18.90;39.50;;;;;;5085412;28;20038;-48
2021/01/09 08:53:58;;;;;;;2.55;1.70;;;18.90;39.40;;;;;;5086602;28;20527;-50
2021/01/09 08:56:29;;;;;;;3.10;1.83;;;18.90;39.20;;;;;;5085602;28;20042;-49
2021/01/09 08:58:59;;;;;;;3.13;1.77;;;19.00;39.20;;;;;;5095038;28;20028;-46
2021/01/09 09:01:28;;;;;;;2.13;1.88;;;18.90;39.20;;;;;;5098762;28;20109;-51
2021/01/09 09:03:59;;;;;;;3.42;1.73;;;19.00;39.30;;;;;;5103088;28;20100;-50
2021/01/09 09:06:28;;;;;;;2.67;1.85;;;18.90;39.20;;;;;;5099430;28;20024;-52
2021/01/09 09:08:54;;;;;;;3.38;2.13;;;18.90;39.30;;;;;;5087879;28;20035;-48
2021/01/09 09:11:25;;;;;;;3.13;2.42;;;18.90;39.20;;;;;;5084203;28;20063;-50
2021/01/09 09:14:08;;;;;;;2.45;1.83;;;18.90;39.20;;;;;;5085543;28;20024;-45
2021/01/09 09:16:35;;;;;;;3.35;2.47;;;18.90;39.20;;;;;;5084731;28;20071;-48
2021/01/09 09:19:16;;;;;;;4.40;2.63;;;18.90;39.20;;;;;;5085121;28;20039;-46
2021/01/09 09:21:48;;;;;;;3.53;2.65;;;18.90;39.10;;;;;;5082568;28;20068;-50
2021/01/09 09:24:16;;;;;;;5.32;3.10;;;18.90;39.10;;;;;;5084870;28;21723;-46
2021/01/09 09:26:42;;;;;;;3.88;2.53;;;18.90;39.10;;;;;;5085823;28;20493;-47
2021/01/09 09:29:08;;;;;;;4.68;2.75;;;18.90;39.20;;;;;;5086254;28;20599;-46
2021/01/09 09:31:39;;;;;;;8.88;3.13;;;18.90;39.10;;;;;;5084258;28;20028;-49
2021/01/09 09:34:12;;;;;;;4.55;3.20;;;18.90;39.10;;;;;;5077969;28;20042;-47
2021/01/09 09:36:50;;;;;;;3.70;2.65;;;18.90;39.00;;;;;;5083296;28;20028;-48
2021/01/09 09:39:18;;;;;;;3.55;2.35;;;18.90;39.10;;;;;;5081510;28;20509;-48
2021/01/09 09:41:53;;;;;;;6.57;3.53;;;18.90;39.00;;;;;;5076312;28;20771;-47
2021/01/09 09:44:21;;;;;;;5.00;3.00;;;18.90;39.00;;;;;;5084372;28;20554;-44
2021/01/09 09:46:49;;;;;;;4.75;2.97;;;18.90;39.00;;;;;;5085018;28;20386;-43
2021/01/09 09:49:15;;;;;;;6.15;3.20;;;18.80;39.10;;;;;;5081479;28;20036;-46
2021/01/09 09:51:41;;;;;;;3.75;2.85;;;18.90;39.20;;;;;;5082036;28;20024;-46
2021/01/09 09:54:06;;;;;;;3.83;2.63;;;18.90;39.30;;;;;;5082123;28;20028;-48
2021/01/09 09:56:41;;;;;;;5.28;3.38;;;19.00;39.20;;;;;;5078825;28;20103;-49
2021/01/09 09:59:09;;;;;;;5.47;2.97;;;19.20;39.10;;;;;;5080022;28;22627;-47
2021/01/09 10:01:35;;;;;;;3.58;2.67;;;19.30;38.90;;;;;;5078335;28;20036;-49
2021/01/09 10:04:03;;;;;;;3.92;2.67;;;19.40;38.80;;;;;;5079624;28;20059;-48
2021/01/09 10:06:39;;;;;;;4.47;2.83;;;19.50;38.60;;;;;;5082639;28;20032;-47
2021/01/09 10:09:12;;;;;;;5.07;2.85;;;19.50;38.50;;;;;;5083562;28;20128;-43
2021/01/09 10:11:38;;;;;;;5.30;3.05;;;19.60;38.40;;;;;;5086722;28;20036;-50
2021/01/09 10:14:04;;;;;;;3.83;2.88;;;19.70;38.40;;;;;;5084119;28;20039;-48
2021/01/09 10:16:30;;;;;;;3.92;2.53;;;19.70;38.30;;;;;;5085779;28;20024;-51
2021/01/09 10:18:55;;;;;;;4.40;2.88;;;19.70;38.30;;;;;;5083939;28;20032;-48
2021/01/09 10:21:27;;;;;;;4.68;2.90;;;19.80;38.30;;;;;;5082331;28;20051;-47
2021/01/09 10:23:53;;;;;;;3.20;2.63;;;19.80;38.30;;;;;;5079867;28;20736;-50
2021/01/09 10:26:28;;;;;;;3.50;2.50;;;19.90;38.30;;;;;;5086888;28;20115;-48
2021/01/09 10:28:54;;;;;;;3.88;2.80;;;19.90;38.30;;;;;;5083565;28;20059;-45
2021/01/09 10:31:27;;;;;;;4.10;3.33;;;19.90;38.30;;;;;;5083791;28;20074;-46
2021/01/09 10:33:53;;;;;;;2.78;2.10;;;19.90;38.40;;;;;;5082150;28;20031;-50
2021/01/09 10:36:26;;;;;;;3.70;2.92;;;19.80;38.40;;;;;;5085152;28;20032;-48
2021/01/09 10:38:51;;;;;;;2.70;2.38;;;19.90;38.50;;;;;;5084477;28;20058;-49
2021/01/09 10:41:17;;;;;;;4.63;2.67;;;19.90;38.50;;;;;;5081894;28;20040;-48
2021/01/09 10:43:43;;;;;;;3.80;2.72;;;19.80;38.50;;;;;;5083403;28;20070;-51
2021/01/09 10:46:08;;;;;;;3.22;2.50;;;19.80;38.60;;;;;;5064655;28;20050;-49
2021/01/09 10:48:35;;;;;;;3.08;2.70;;;19.80;38.60;;;;;;5081246;28;20034;-48
2021/01/09 10:51:00;;;;;;;3.70;2.33;;;19.80;38.70;;;;;;5083166;28;20132;-50
2021/01/09 10:53:26;;;;;;;3.40;2.85;;;19.70;38.70;;;;;;5082378;28;20127;-47
2021/01/09 10:55:55;;;;;;;5.60;2.75;;;19.70;38.70;;;;;;5083283;28;20101;-47
2021/01/09 10:58:21;;;;;;;5.38;2.78;;;19.70;38.80;;;;;;5085352;28;20067;-51
2021/01/09 11:00:46;;;;;;;4.03;3.10;;;19.70;38.80;;;;;;5084143;28;20086;-49
2021/01/09 11:03:12;;;;;;;4.90;3.60;;;19.70;38.80;;;;;;5071581;28;20116;-50
2021/01/09 11:05:40;;;;;;;5.10;3.28;;;19.60;39.00;;;;;;5085095;28;20419;-48
2021/01/09 11:08:06;;;;;;;3.40;3.10;;;19.60;39.50;;;;;;5090186;28;20031;-49
2021/01/09 11:10:31;;;;;;;4.78;2.67;;;19.60;39.70;;;;;;5078394;28;20159;-47
2021/01/09 11:12:57;;;;;;;5.00;2.85;;;19.50;40.10;;;;;;5084657;28;20032;-48
2021/01/09 11:15:23;;;;;;;6.35;4.15;;;19.50;40.20;;;;;;5079245;28;20075;-44
2021/01/09 11:17:48;;;;;;;4.93;3.00;;;19.40;40.20;;;;;;5090270;28;20035;-46
2021/01/09 11:20:15;;;;;;;8.27;3.80;;;19.40;40.20;;;;;;5082400;28;20059;-48
2021/01/09 11:22:40;;;;;;;4.53;3.65;;;19.40;40.20;;;;;;5087180;28;20032;-50
2021/01/09 11:25:06;;;;;;;8.07;3.58;;;19.40;40.20;;;;;;5087506;28;20525;-47
2021/01/09 11:27:32;;;;;;;4.80;3.78;;;19.40;40.10;;;;;;5089472;28;20089;-47
2021/01/09 11:29:57;;;;;;;8.75;4.18;;;19.30;40.00;;;;;;5090873;28;20020;-47
2021/01/09 11:32:23;;;;;;;6.78;4.03;;;19.40;40.00;;;;;;5087131;28;20044;-47
2021/01/09 11:34:49;;;;;;;7.45;4.70;;;19.30;39.90;;;;;;5087479;28;20043;-48
2021/01/09 11:37:15;;;;;;;6.43;3.88;;;19.30;39.80;;;;;;5084216;28;20532;-49
2021/01/09 11:39:40;;;;;;;6.85;4.32;;;19.30;39.80;;;;;;5067625;28;20158;-47
2021/01/09 11:42:07;;;;;;;7.40;5.57;;;19.30;39.70;;;;;;5071403;28;20481;-48
2021/01/09 11:44:33;;;;;;;8.88;5.43;;;19.30;39.60;;;;;;5088661;28;20028;-45
2021/01/09 11:46:58;;;;;;;7.60;5.60;;;19.30;39.50;;;;;;5086513;28;20035;-45
2021/01/09 11:49:25;;;;;;;8.55;6.18;;;19.30;39.40;;;;;;5070212;28;20405;-50
2021/01/09 11:51:52;;;;;;;8.57;5.45;;;19.30;39.40;;;;;;5060394;28;20023;-47
2021/01/09 11:54:18;;;;;;;8.30;6.13;;;19.30;39.40;;;;;;5092854;28;20028;-50
2021/01/09 11:56:43;;;;;;;9.77;6.40;;;19.40;39.60;;;;;;5084768;28;20144;-51
2021/01/09 11:59:09;;;;;;;10.60;7.07;;;19.30;39.60;;;;;;5090920;28;20032;-46
2021/01/09 12:01:39;;;;;;;8.35;6.47;;;19.40;39.60;;;;;;5089113;28;20585;-51
2021/01/09 12:04:07;;;;;;;9.45;6.38;;;19.30;39.50;;;;;;5089681;22;20051;-42
2021/01/09 12:06:34;;;;;;;8.15;5.95;;;19.30;39.50;;;;;;5073019;28;20023;-42
2021/01/09 12:09:00;;;;;;;8.15;5.90;;;19.40;39.70;;;;;;5081504;28;20028;-41
2021/01/09 12:11:25;;;;;;;8.50;5.90;;;19.40;39.80;;;;;;5073019;28;20026;-43
2021/01/09 12:13:51;;;;;;;10.68;6.45;;;19.40;39.70;;;;;;5075588;28;21963;-43
2021/01/09 12:16:29;;;;;;;9.35;6.07;;;19.40;39.60;;;;;;5071776;28;20032;-41
2021/01/09 12:18:55;;;;;;;13.15;6.40;;;19.30;39.50;;;;;;5077983;28;20029;-41
2021/01/09 12:21:21;;;;;;;11.05;7.07;;;19.30;39.40;;;;;;5071273;28;20503;-42
2021/01/09 12:23:46;;;;;;;10.63;7.95;;;19.30;39.30;;;;;;5072380;28;20044;-43
2021/01/09 12:26:19;;;;;;;15.13;8.05;;;19.30;39.20;;;;;;5071197;28;20074;-40
2021/01/09 12:28:45;;;;;;;11.60;7.53;;;19.30;39.20;;;;;;5072839;28;20025;-40
2021/01/09 12:31:11;;;;;;;7.53;4.95;;;19.40;39.30;;;;;;5070382;28;20124;-43
2021/01/09 12:33:37;;;;;;;6.57;5.32;;;19.50;39.10;;;;;;5073663;28;20121;-43
2021/01/09 12:36:03;;;;;;;8.60;6.07;;;19.60;39.00;;;;;;5075788;28;20048;-44
2021/01/09 12:38:28;;;;;;;10.43;5.93;;;19.60;38.90;;;;;;5068601;28;20693;-44
2021/01/09 12:40:54;;;;;;;9.98;6.60;;;19.70;38.70;;;;;;5073650;28;20145;-41
2021/01/09 12:43:19;;;;;;;8.23;5.65;;;19.80;38.70;;;;;;5074220;28;20148;-45
2021/01/09 12:45:48;;;;;;;7.38;5.40;;;19.80;38.60;;;;;;5074557;28;20037;-44
2021/01/09 12:48:13;;;;;;;8.23;6.25;;;19.90;38.60;;;;;;5070460;28;20089;-43